Thunder radar more information blitzortung!


Radar de pluja more information rain snow radar


Visita la nostra xarxa de llocs de meteo:

Template documentation
and downloads

And another site



No particular awareness of the weather is required.    There are no Weather-warnings

Pagina Historial Weather Underground text

Diari Resum May 24, 2016 Unitats:  Mètric    Imperial   Tant
« Previous Dia
SegĂźent Dia »
Diari Setmana Mensual Anual Personalitzada
  Maxima: Minima: Media:
Temperatura: 23.8 °C 12.8 °C 19.4 °C
Punt de rosada: 10.9 °C 6.8 °C 9 °C
Humitat: 75 % 36 % 52 %
Wind Speed: 22.2 km/h 0.0 km/h 8.7 km/h
RĂ fegues de vent: 22.2 km/h - -
Vent:- - SW
Pression baro: 1022.9 hPa 1010.7 hPa -
Precipitacions: 0.0 mm    
Historical Graphs
 
 
Dades de taula per May 24, 2016
Temps Temperatura Punt de rosada Pression baro Vent Wind Speed RĂ fegues de vent Humitat Rainfall Rate (Hourly)
00:00 13.9 °C 6.9 °C 1022.9 hPa NE 5.6 km/h 5.6 km/h 63 % 0.0 mm
00:05 13.8 °C 6.9 °C 1022.9 hPa NE 3.7 km/h 3.7 km/h 63 % 0.0 mm
00:10 13.7 °C 6.8 °C 1022.9 hPa NNE 3.9 km/h 3.9 km/h 63 % 0.0 mm
03:20 12.8 °C 8.5 °C 1019.9 hPa ENE 3.2 km/h 3.2 km/h 75 % 0.0 mm
03:30 13.0 °C 8.3 °C 1019.9 hPa NE 1.6 km/h 3.2 km/h 73 % 0.0 mm
03:40 13.1 °C 8.4 °C 1019.9 hPa NE 3.2 km/h 3.2 km/h 73 % 0.0 mm
03:50 13.2 °C 8.4 °C 1019.9 hPa Calm   4.8 km/h 73 % 0.0 mm
04:00 13.8 °C 8.8 °C 1019.9 hPa Calm   3.2 km/h 72 % 0.0 mm
04:05 13.9 °C 8.9 °C 1019.9 hPa Calm   4.8 km/h 72 % 0.0 mm
04:15 14.1 °C 8.9 °C 1019.9 hPa SW 3.2 km/h 3.2 km/h 71 % 0.0 mm
04:25 14.8 °C 9.4 °C 1018.8 hPa Calm   1.6 km/h 70 % 0.0 mm
04:35 15.0 °C 9.3 °C 1018.8 hPa West 3.2 km/h 4.8 km/h 69 % 0.0 mm
05:05 16.6 °C 10.7 °C 1018.8 hPa East 4.8 km/h 6.4 km/h 68 % 0.0 mm
05:15 17.6 °C 10.9 °C 1018.8 hPa SSW 4.8 km/h 4.8 km/h 65 % 0.0 mm
05:25 17.4 °C 10.3 °C 1018.8 hPa SSW 9.7 km/h 9.7 km/h 63 % 0.0 mm
05:35 17.9 °C 10.8 °C 1018.8 hPa South 4.8 km/h 4.8 km/h 63 % 0.0 mm
05:45 18.6 °C 10.9 °C 1017.8 hPa SW 3.2 km/h 9.7 km/h 61 % 0.0 mm
05:55 18.3 °C 10.4 °C 1017.8 hPa WSW 1.6 km/h 6.4 km/h 60 % 0.0 mm
06:05 18.4 °C 10.2 °C 1017.8 hPa SW 4.8 km/h 9.7 km/h 59 % 0.0 mm
06:15 18.7 °C 10.3 °C 1017.8 hPa SW 3.2 km/h 8.0 km/h 58 % 0.0 mm
06:25 18.8 °C 9.8 °C 1017.8 hPa SSW 4.8 km/h 9.7 km/h 56 % 0.0 mm
06:35 19.7 °C 10.1 °C 1017.8 hPa SSW 4.8 km/h 9.7 km/h 54 % 0.0 mm
06:45 19.8 °C 9.9 °C 1017.8 hPa WSW 4.8 km/h 12.9 km/h 53 % 0.0 mm
06:55 20.0 °C 9.8 °C 1017.8 hPa WSW 9.7 km/h 9.7 km/h 52 % 0.0 mm
07:05 20.8 °C 10.6 °C 1017.8 hPa WSW 3.2 km/h 9.7 km/h 52 % 0.0 mm
07:15 20.8 °C 10.3 °C 1017.8 hPa SW 9.7 km/h 14.5 km/h 51 % 0.0 mm
07:45 21.7 °C 10.5 °C 1017.8 hPa SW 9.7 km/h 9.7 km/h 49 % 0.0 mm
07:55 21.8 °C 10.6 °C 1016.8 hPa SW 3.2 km/h 12.9 km/h 49 % 0.0 mm
08:15 22.1 °C 9.3 °C 1016.8 hPa WSW 4.8 km/h 12.9 km/h 44 % 0.0 mm
08:25 22.1 °C 8.6 °C 1015.8 hPa SW 9.7 km/h 16.1 km/h 42 % 0.0 mm
13:34 21.7 °C 8.6 °C 1015.8 hPa SSW 9.3 km/h 9.3 km/h 43 % 0.0 mm
13:39 21.9 °C 8.7 °C 1016.8 hPa SSW 9.3 km/h 9.3 km/h 43 % 0.0 mm
13:45 22.1 °C 8.2 °C 1016.8 hPa SSW 14.8 km/h 14.8 km/h 41 % 0.0 mm
13:50 21.8 °C 7.9 °C 1015.8 hPa SW 11.4 km/h 11.4 km/h 41 % 0.0 mm
13:55 21.5 °C 7.7 °C 1015.8 hPa South 9.3 km/h 9.3 km/h 41 % 0.0 mm
14:00 22.4 °C 8.5 °C 1015.8 hPa SSW 14.8 km/h 14.8 km/h 41 % 0.0 mm
14:05 21.6 °C 7.4 °C 1015.8 hPa SW 16.7 km/h 16.7 km/h 40 % 0.0 mm
14:10 21.8 °C 7.6 °C 1015.8 hPa SW 20.4 km/h 20.4 km/h 40 % 0.0 mm
14:15 22.0 °C 8.1 °C 1015.8 hPa SW 13.0 km/h 13.0 km/h 41 % 0.0 mm
14:20 21.8 °C 7.9 °C 1015.8 hPa SSW 13.0 km/h 13.0 km/h 41 % 0.0 mm
14:25 22.0 °C 7.8 °C 1015.8 hPa WSW 20.4 km/h 20.4 km/h 40 % 0.0 mm
14:30 22.2 °C 8.3 °C 1015.8 hPa SW 9.3 km/h 9.3 km/h 41 % 0.0 mm
14:35 22.4 °C 8.8 °C 1014.8 hPa SW 7.4 km/h 7.4 km/h 42 % 0.0 mm
14:40 23.0 °C 9.1 °C 1014.8 hPa SW 7.4 km/h 7.4 km/h 41 % 0.0 mm
14:45 22.9 °C 9.3 °C 1014.8 hPa West 11.1 km/h 11.1 km/h 42 % 0.0 mm
14:50 22.8 °C 9.2 °C 1014.8 hPa SW 9.3 km/h 9.3 km/h 42 % 0.0 mm
14:55 23.0 °C 8.7 °C 1014.8 hPa SW 14.8 km/h 14.8 km/h 40 % 0.0 mm
15:00 23.1 °C 8.8 °C 1014.8 hPa SSW 13.0 km/h 13.0 km/h 40 % 0.0 mm
15:05 23.4 °C 8.7 °C 1014.8 hPa SW 11.1 km/h 11.1 km/h 39 % 0.0 mm
15:10 23.7 °C 8.9 °C 1014.8 hPa West 9.3 km/h 9.3 km/h 39 % 0.0 mm
15:15 23.7 °C 8.6 °C 1014.8 hPa SSW 12.2 km/h 12.2 km/h 38 % 0.0 mm
15:20 23.8 °C 9.0 °C 1014.8 hPa SW 9.3 km/h 9.3 km/h 39 % 0.0 mm
15:25 23.6 °C 8.4 °C 1014.8 hPa SW 11.4 km/h 11.4 km/h 38 % 0.0 mm
15:30 23.6 °C 7.7 °C 1014.8 hPa SW 16.7 km/h 16.7 km/h 36 % 0.0 mm
15:35 23.4 °C 7.9 °C 1013.8 hPa SW 9.3 km/h 9.3 km/h 37 % 0.0 mm
15:40 23.6 °C 8.1 °C 1013.8 hPa SW 13.0 km/h 13.0 km/h 37 % 0.0 mm
15:45 23.6 °C 8.4 °C 1013.8 hPa South 13.0 km/h 13.0 km/h 38 % 0.0 mm
15:50 23.3 °C 8.2 °C 1013.8 hPa SW 14.0 km/h 14.0 km/h 38 % 0.0 mm
15:55 23.0 °C 7.9 °C 1013.8 hPa WSW 20.4 km/h 20.4 km/h 38 % 0.0 mm
16:00 23.1 °C 8.0 °C 1013.8 hPa SW 13.0 km/h 13.0 km/h 38 % 0.0 mm
16:05 23.7 °C 8.9 °C 1013.8 hPa SW 7.4 km/h 7.4 km/h 39 % 0.0 mm
16:10 23.1 °C 8.0 °C 1013.8 hPa SW 13.0 km/h 13.0 km/h 38 % 0.0 mm
16:15 23.1 °C 8.0 °C 1013.8 hPa SW 9.7 km/h 20.9 km/h 38 % 0.0 mm
16:25 23.0 °C 7.5 °C 1013.8 hPa SSW 16.7 km/h 16.7 km/h 37 % 0.0 mm
16:30 23.2 °C 8.5 °C 1013.8 hPa SW 9.7 km/h 16.1 km/h 39 % 0.0 mm
16:35 22.9 °C 8.2 °C 1013.8 hPa SW 18.3 km/h 18.3 km/h 39 % 0.0 mm
16:40 23.0 °C 8.3 °C 1013.8 hPa West 18.5 km/h 18.5 km/h 39 % 0.0 mm
16:45 22.5 °C 7.8 °C 1013.8 hPa SSW 13.7 km/h 13.7 km/h 39 % 0.0 mm
16:55 22.6 °C 8.3 °C 1013.8 hPa SW 9.7 km/h 17.7 km/h 40 % 0.0 mm
17:00 22.6 °C 8.3 °C 1013.8 hPa South 11.1 km/h 11.1 km/h 40 % 0.0 mm
17:05 22.6 °C 8.3 °C 1012.8 hPa SSW 8.0 km/h 14.5 km/h 40 % 0.0 mm
17:10 22.3 °C 8.1 °C 1012.8 hPa SW 11.4 km/h 11.4 km/h 40 % 0.0 mm
17:15 22.6 °C 8.3 °C 1012.8 hPa SW 14.8 km/h 14.8 km/h 40 % 0.0 mm
17:20 22.5 °C 8.2 °C 1012.8 hPa SW 16.7 km/h 16.7 km/h 40 % 0.0 mm
17:25 22.0 °C 8.1 °C 1012.8 hPa SW 4.8 km/h 20.9 km/h 41 % 0.0 mm
17:30 22.3 °C 8.8 °C 1012.8 hPa SSW 9.3 km/h 11.1 km/h 42 % 0.0 mm
17:35 22.3 °C 8.8 °C 1012.8 hPa SW 15.6 km/h 15.6 km/h 42 % 0.0 mm
17:40 22.1 °C 8.2 °C 1012.8 hPa SW 7.4 km/h 7.4 km/h 41 % 0.0 mm
17:45 22.1 °C 8.6 °C 1012.8 hPa SSW 13.0 km/h 13.0 km/h 42 % 0.0 mm
17:50 21.9 °C 8.4 °C 1011.7 hPa South 13.0 km/h 13.0 km/h 42 % 0.0 mm
17:55 21.8 °C 8.7 °C 1011.7 hPa SSW 18.5 km/h 18.5 km/h 43 % 0.0 mm
18:00 21.3 °C 8.2 °C 1011.7 hPa SE 13.0 km/h 13.0 km/h 43 % 0.0 mm
18:05 21.5 °C 8.4 °C 1012.8 hPa SW 9.3 km/h 9.3 km/h 43 % 0.0 mm
18:10 21.5 °C 8.4 °C 1012.8 hPa SSW 13.0 km/h 13.0 km/h 43 % 0.0 mm
18:15 21.4 °C 8.3 °C 1012.8 hPa WSW 9.3 km/h 9.3 km/h 43 % 0.0 mm
18:20 21.0 °C 8.3 °C 1011.7 hPa SSW 22.2 km/h 22.2 km/h 44 % 0.0 mm
18:25 20.9 °C 8.5 °C 1011.7 hPa SSW 20.4 km/h 20.4 km/h 45 % 0.0 mm
18:30 20.8 °C 8.8 °C 1011.7 hPa SSW 14.8 km/h 14.8 km/h 46 % 0.0 mm
18:35 20.9 °C 8.8 °C 1011.7 hPa SSW 11.1 km/h 11.1 km/h 46 % 0.0 mm
18:40 20.8 °C 9.1 °C 1011.7 hPa WSW 12.6 km/h 12.6 km/h 47 % 0.0 mm
18:45 20.4 °C 8.7 °C 1011.7 hPa South 13.0 km/h 13.0 km/h 47 % 0.0 mm
18:50 20.4 °C 9.0 °C 1011.7 hPa SW 13.0 km/h 13.0 km/h 48 % 0.0 mm
18:55 20.4 °C 9.0 °C 1011.7 hPa WSW 11.1 km/h 11.1 km/h 48 % 0.0 mm
19:00 20.6 °C 9.2 °C 1011.7 hPa SW 9.7 km/h 9.7 km/h 48 % 0.0 mm
19:05 20.4 °C 9.0 °C 1011.7 hPa South 14.8 km/h 14.8 km/h 48 % 0.0 mm
19:10 20.4 °C 9.3 °C 1011.7 hPa WSW 13.0 km/h 13.0 km/h 49 % 0.0 mm
19:15 20.1 °C 9.1 °C 1011.7 hPa SW 11.1 km/h 11.1 km/h 49 % 0.0 mm
19:20 20.0 °C 8.9 °C 1011.7 hPa SSW 9.3 km/h 9.3 km/h 49 % 0.0 mm
19:25 19.7 °C 9.0 °C 1011.7 hPa SW 14.8 km/h 14.8 km/h 50 % 0.0 mm
19:30 19.5 °C 8.8 °C 1011.7 hPa SSW 9.3 km/h 9.3 km/h 50 % 0.0 mm
19:35 19.6 °C 8.9 °C 1011.7 hPa SW 9.3 km/h 9.3 km/h 50 % 0.0 mm
19:45 19.4 °C 9.0 °C 1011.7 hPa SSW 14.8 km/h 14.8 km/h 51 % 0.0 mm
19:50 19.3 °C 8.9 °C 1011.7 hPa SW 4.8 km/h 16.1 km/h 51 % 0.0 mm
19:55 19.0 °C 8.9 °C 1011.7 hPa SSW 11.1 km/h 11.1 km/h 52 % 0.0 mm
20:00 19.1 °C 9.0 °C 1011.7 hPa SW 5.6 km/h 5.6 km/h 52 % 0.0 mm
20:05 19.0 °C 8.9 °C 1011.7 hPa WSW 9.5 km/h 9.5 km/h 52 % 0.0 mm
20:10 18.7 °C 9.2 °C 1011.7 hPa SW 9.3 km/h 9.3 km/h 54 % 0.0 mm
20:15 18.6 °C 9.4 °C 1011.7 hPa SW 13.0 km/h 13.0 km/h 55 % 0.0 mm
20:20 18.4 °C 9.4 °C 1011.7 hPa SW 9.3 km/h 9.3 km/h 56 % 0.0 mm
20:25 18.2 °C 9.6 °C 1011.7 hPa WSW 11.1 km/h 11.1 km/h 57 % 0.0 mm
20:30 18.2 °C 9.8 °C 1011.7 hPa WSW 9.7 km/h 9.7 km/h 58 % 0.0 mm
20:35 18.0 °C 9.6 °C 1011.7 hPa WSW 7.4 km/h 7.4 km/h 58 % 0.0 mm
20:40 18.0 °C 9.6 °C 1011.7 hPa SSW 3.7 km/h 3.7 km/h 58 % 0.0 mm
20:45 17.8 °C 9.7 °C 1011.7 hPa WSW 7.4 km/h 7.4 km/h 59 % 0.0 mm
20:50 17.7 °C 9.6 °C 1011.7 hPa SSW 7.4 km/h 7.4 km/h 59 % 0.0 mm
20:55 17.6 °C 9.5 °C 1011.7 hPa SW 7.4 km/h 7.4 km/h 59 % 0.0 mm
21:00 17.5 °C 9.4 °C 1011.7 hPa SW 4.8 km/h 11.3 km/h 59 % 0.0 mm
21:05 17.3 °C 9.2 °C 1011.7 hPa SSW 10.0 km/h 10.0 km/h 59 % 0.0 mm
21:10 17.2 °C 9.4 °C 1011.7 hPa SW 7.4 km/h 7.4 km/h 60 % 0.0 mm
21:15 17.1 °C 9.3 °C 1011.7 hPa SW 3.7 km/h 3.7 km/h 60 % 0.0 mm
21:20 17.0 °C 9.2 °C 1010.7 hPa SW 9.3 km/h 9.3 km/h 60 % 0.0 mm
21:25 16.9 °C 9.3 °C 1010.7 hPa SW 5.6 km/h 5.6 km/h 61 % 0.0 mm
21:30 16.8 °C 9.5 °C 1010.7 hPa SSW 9.3 km/h 9.3 km/h 62 % 0.0 mm
21:40 16.7 °C 9.4 °C 1011.7 hPa SW 3.9 km/h 3.9 km/h 62 % 0.0 mm
21:45 16.6 °C 9.3 °C 1011.7 hPa SW 5.6 km/h 5.6 km/h 62 % 0.0 mm
21:50 16.6 °C 9.3 °C 1011.7 hPa WSW 5.6 km/h 5.6 km/h 62 % 0.0 mm
21:55 16.5 °C 9.4 °C 1011.7 hPa SW 3.7 km/h 3.7 km/h 63 % 0.0 mm
22:00 16.4 °C 9.3 °C 1011.7 hPa WSW 1.9 km/h   63 % 0.0 mm
22:05 16.4 °C 9.3 °C 1011.7 hPa SW 5.0 km/h 5.0 km/h 63 % 0.0 mm
22:10 16.3 °C 9.2 °C 1011.7 hPa SW 5.6 km/h 5.6 km/h 63 % 0.0 mm
22:15 16.3 °C 9.5 °C 1011.7 hPa West 3.7 km/h   64 % 0.0 mm
22:20 16.2 °C 9.6 °C 1011.7 hPa SW 5.6 km/h 5.6 km/h 65 % 0.0 mm
22:25 16.1 °C 9.5 °C 1011.7 hPa SW 5.6 km/h 5.6 km/h 65 % 0.0 mm
22:35 16.0 °C 9.7 °C 1011.7 hPa WSW 3.7 km/h 3.7 km/h 66 % 0.0 mm
22:40 16.0 °C 9.7 °C 1011.7 hPa WSW 3.7 km/h 3.7 km/h 66 % 0.0 mm
22:45 15.9 °C 9.6 °C 1011.7 hPa SW 4.2 km/h 4.2 km/h 66 % 0.0 mm
22:50 15.9 °C 9.8 °C 1011.7 hPa SSW 4.2 km/h 4.2 km/h 67 % 0.0 mm
22:55 15.8 °C 9.7 °C 1011.7 hPa West 3.5 km/h 3.5 km/h 67 % 0.0 mm
23:00 15.8 °C 9.9 °C 1011.7 hPa WSW 1.9 km/h 1.9 km/h 68 % 0.0 mm
23:05 15.7 °C 10.0 °C 1011.7 hPa WSW 2.3 km/h 2.3 km/h 69 % 0.0 mm
23:10 15.6 °C 9.7 °C 1011.7 hPa SW 1.6 km/h 3.2 km/h 68 % 0.0 mm
23:20 15.6 °C 9.9 °C 1011.7 hPa WSW 2.3 km/h 2.3 km/h 69 % 0.0 mm
23:25 15.6 °C 9.9 °C 1011.7 hPa SW 2.3 km/h 2.3 km/h 69 % 0.0 mm
23:30 15.5 °C 9.8 °C 1011.7 hPa SW 3.7 km/h 3.7 km/h 69 % 0.0 mm
23:35 15.4 °C 10.2 °C 1011.7 hPa Calm     71 % 0.0 mm
23:40 15.4 °C 9.9 °C 1011.7 hPa WSW 3.7 km/h 3.7 km/h 70 % 0.0 mm
23:45 15.4 °C 10.2 °C 1011.7 hPa WSW 1.9 km/h 1.9 km/h 71 % 0.0 mm
23:50 15.4 °C 10.2 °C 1012.8 hPa WSW 1.9 km/h   71 % 0.0 mm
23:55 15.4 °C 10.2 °C 1012.8 hPa WSW 3.2 km/h 4.8 km/h 71 % 0.0 mm
Meteo Sesrovires
Elogis d' Weather Underground - 3.25 mb

Guio original per  Jim McMurry - jmcmurry@mwt.net Adaptat per a la plantilla per  Wim van der Kuil - Leuven-Template.eu

Trobareu la nostra informacio del temps tambe a:

Weather Underground

AWEKAS